createdAt,value
2023-04-09T00:00:24.985Z,3.43
2023-04-09T00:02:54.325Z,3.97
2023-04-09T00:05:22.054Z,4.47
2023-04-09T00:07:48.721Z,4.07
2023-04-09T00:10:15.461Z,3.90
2023-04-09T00:12:46.758Z,3.90
2023-04-09T00:15:27.799Z,4.10
2023-04-09T00:18:00.289Z,3.75
2023-04-09T00:20:27.073Z,4.00
2023-04-09T00:22:54.129Z,4.43
2023-04-09T00:25:21.102Z,3.70
2023-04-09T00:27:50.437Z,3.57
2023-04-09T00:30:17.188Z,3.90
2023-04-09T00:32:43.956Z,4.43
2023-04-09T00:35:11.017Z,3.60
2023-04-09T00:37:39.973Z,3.83
2023-04-09T00:40:07.347Z,5.43
2023-04-09T00:42:39.816Z,3.80
2023-04-09T00:45:07.173Z,3.70
2023-04-09T00:47:35.552Z,4.20
2023-04-09T00:50:03.216Z,4.07
2023-04-09T00:52:33.231Z,4.10
2023-04-09T00:55:04.270Z,3.80
2023-04-09T00:57:31.045Z,3.80
2023-04-09T00:59:58.085Z,3.80
2023-04-09T01:02:27.277Z,3.83
2023-04-09T01:04:56.334Z,3.70
2023-04-09T01:07:42.703Z,3.47
2023-04-09T01:10:44.678Z,5.90
2023-04-09T01:13:30.323Z,4.10
2023-04-09T01:16:01.944Z,4.10
2023-04-09T01:18:36.153Z,4.20
2023-04-09T01:21:11.703Z,4.33
2023-04-09T01:24:05.307Z,4.97
2023-04-09T01:26:53.251Z,4.20
2023-04-09T01:29:22.809Z,3.63
2023-04-09T01:31:52.290Z,4.85
2023-04-09T01:34:20.325Z,4.53
2023-04-09T01:36:54.770Z,4.10
2023-04-09T01:39:23.301Z,6.47
2023-04-09T01:41:51.457Z,5.53
2023-04-09T01:44:19.804Z,5.57
2023-04-09T01:46:50.089Z,5.07
2023-04-09T01:49:20.670Z,4.33
2023-04-09T01:51:50.475Z,3.60
2023-04-09T01:54:17.334Z,4.17
2023-04-09T01:56:48.305Z,3.97
2023-04-09T01:59:15.703Z,4.17
2023-04-09T02:01:59.812Z,3.40
2023-04-09T02:04:40.957Z,6.30
2023-04-09T02:07:30.155Z,3.90
2023-04-09T02:09:59.558Z,3.70
2023-04-09T02:12:27.105Z,3.97
2023-04-09T02:14:56.901Z,3.80
2023-04-09T02:17:25.732Z,3.90
2023-04-09T02:19:52.768Z,4.10
2023-04-09T02:22:19.882Z,3.87
2023-04-09T02:24:47.112Z,3.57
2023-04-09T02:27:13.942Z,4.30
2023-04-09T02:29:43.252Z,4.20
2023-04-09T02:32:14.583Z,3.80
2023-04-09T02:34:45.974Z,4.23
2023-04-09T02:37:12.651Z,3.73
2023-04-09T02:39:39.423Z,10.87
2023-04-09T02:42:08.418Z,15.97
2023-04-09T02:44:35.326Z,7.50
2023-04-09T02:47:02.073Z,7.80
2023-04-09T02:49:29.055Z,9.20
2023-04-09T02:51:58.290Z,8.80
2023-04-09T02:54:27.475Z,15.27
2023-04-09T02:56:54.455Z,9.03
2023-04-09T02:59:21.231Z,6.67
2023-04-09T03:01:48.264Z,5.77
2023-04-09T03:04:15.161Z,6.85
2023-04-09T03:06:41.866Z,5.63
2023-04-09T03:09:08.541Z,11.70
2023-04-09T03:11:35.375Z,6.70
2023-04-09T03:14:04.397Z,5.43
2023-04-09T03:16:31.596Z,6.07
2023-04-09T03:19:00.699Z,4.47
2023-04-09T03:21:27.438Z,5.03
2023-04-09T03:23:56.343Z,4.32
2023-04-09T03:26:23.026Z,7.53
2023-04-09T03:28:50.019Z,7.47
2023-04-09T03:31:17.085Z,5.27
2023-04-09T03:33:43.811Z,5.67
2023-04-09T03:36:12.975Z,7.37
2023-04-09T03:38:42.164Z,7.80
2023-04-09T03:41:11.285Z,9.00
2023-04-09T03:43:42.314Z,5.87
2023-04-09T03:46:18.251Z,6.73
2023-04-09T03:48:45.827Z,4.17
2023-04-09T03:51:15.758Z,4.10
2023-04-09T03:53:46.162Z,5.00
2023-04-09T03:56:15.383Z,4.43
2023-04-09T03:58:42.116Z,6.17
2023-04-09T04:01:11.231Z,5.40
2023-04-09T04:03:38.381Z,7.33
2023-04-09T04:06:05.386Z,4.20
2023-04-09T04:08:32.083Z,5.00
2023-04-09T04:11:04.922Z,3.70
2023-04-09T04:13:31.993Z,3.87
2023-04-09T04:15:58.874Z,4.07
2023-04-09T04:18:25.691Z,5.27
2023-04-09T04:20:52.379Z,5.90
2023-04-09T04:23:19.150Z,5.20
2023-04-09T04:25:46.109Z,18.07
2023-04-09T04:28:12.752Z,16.10
2023-04-09T04:30:42.761Z,18.83
2023-04-09T04:33:14.088Z,16.77
2023-04-09T04:35:41.018Z,25.97
2023-04-09T04:38:09.891Z,38.33
2023-04-09T04:40:38.889Z,27.20
2023-04-09T04:43:07.845Z,11.90
2023-04-09T04:45:34.496Z,19.37
2023-04-09T04:48:01.559Z,22.07
2023-04-09T04:50:28.270Z,11.23
2023-04-09T04:52:55.045Z,20.03
2023-04-09T04:55:21.755Z,16.13
2023-04-09T04:57:50.978Z,11.83
2023-04-09T05:00:20.362Z,14.73
2023-04-09T05:02:54.059Z,10.03
2023-04-09T05:05:23.210Z,19.30
2023-04-09T05:07:52.256Z,6.13
2023-04-09T05:10:21.471Z,8.77
2023-04-09T05:12:48.178Z,7.63
2023-04-09T05:15:17.116Z,8.75
2023-04-09T05:17:44.274Z,7.17
2023-04-09T05:20:14.734Z,10.30
2023-04-09T05:22:46.265Z,8.90
2023-04-09T05:25:17.894Z,4.57
2023-04-09T05:27:47.138Z,9.87
2023-04-09T05:30:16.452Z,5.87
2023-04-09T05:32:43.501Z,8.07
2023-04-09T05:35:12.518Z,4.47
2023-04-09T05:37:39.312Z,6.03
2023-04-09T05:40:08.842Z,4.80
2023-04-09T05:42:36.010Z,4.90
2023-04-09T05:45:03.166Z,4.30
2023-04-09T05:47:29.891Z,5.40
2023-04-09T05:49:56.722Z,4.90
2023-04-09T05:52:23.365Z,4.50
2023-04-09T05:54:50.084Z,5.30
2023-04-09T05:57:16.693Z,5.47
2023-04-09T05:59:43.431Z,5.27
2023-04-09T06:02:12.276Z,4.33
2023-04-09T06:04:39.039Z,4.83
2023-04-09T06:07:07.970Z,6.63
2023-04-09T06:09:34.653Z,4.97
2023-04-09T06:12:01.323Z,5.60
2023-04-09T06:14:33.044Z,4.73
2023-04-09T06:17:04.172Z,4.83
2023-04-09T06:22:26.533Z,4.60
2023-04-09T06:24:55.392Z,4.50
2023-04-09T06:27:22.882Z,5.43
2023-04-09T06:29:49.573Z,5.47
2023-04-09T06:32:19.275Z,4.78
2023-04-09T06:34:48.525Z,5.23
2023-04-09T06:37:15.749Z,5.57
2023-04-09T06:39:53.870Z,4.70
2023-04-09T06:42:26.884Z,5.53
2023-04-09T06:44:53.538Z,4.87
2023-04-09T06:47:20.302Z,5.17
2023-04-09T06:49:47.047Z,4.70
2023-04-09T06:52:16.411Z,5.03
2023-04-09T06:54:46.008Z,8.93
2023-04-09T06:57:12.738Z,2.83
2023-04-09T06:59:39.363Z,6.50
2023-04-09T07:02:06.575Z,4.23
2023-04-09T07:04:33.487Z,4.55
2023-04-09T07:12:29.917Z,3.87
2023-04-09T07:15:06.520Z,6.97
2023-04-09T07:17:34.017Z,4.53
2023-04-09T07:20:03.610Z,5.27
2023-04-09T07:22:33.505Z,4.60
2023-04-09T07:25:00.533Z,3.77
2023-04-09T07:27:28.645Z,4.20
2023-04-09T07:29:56.793Z,4.60
2023-04-09T07:32:24.235Z,4.63
2023-04-09T07:34:55.304Z,5.17
2023-04-09T07:37:22.008Z,5.10
2023-04-09T07:39:49.693Z,5.05
2023-04-09T07:42:21.776Z,4.63
2023-04-09T07:44:48.630Z,4.77
2023-04-09T07:47:15.987Z,5.10
2023-04-09T07:49:42.717Z,5.17
2023-04-09T07:52:09.435Z,6.83
2023-04-09T07:54:38.367Z,5.60
2023-04-09T07:57:07.202Z,6.53
2023-04-09T07:59:39.165Z,6.03
2023-04-09T08:02:06.014Z,6.17
2023-04-09T08:04:32.790Z,5.60
2023-04-09T08:06:59.560Z,6.03
2023-04-09T08:09:26.643Z,6.43
2023-04-09T08:11:55.842Z,5.70
2023-04-09T08:14:22.604Z,5.53
2023-04-09T08:16:52.365Z,5.90
2023-04-09T08:19:20.315Z,5.20
2023-04-09T08:21:49.550Z,5.43
2023-04-09T08:24:16.522Z,4.67
2023-04-09T08:26:46.065Z,4.10
2023-04-09T08:29:15.391Z,3.80
2023-04-09T08:31:42.367Z,3.30
2023-04-09T08:34:09.374Z,4.57
2023-04-09T08:36:38.598Z,4.17
2023-04-09T08:39:07.424Z,3.00
2023-04-09T08:41:36.357Z,3.30
2023-04-09T08:44:07.803Z,2.73
2023-04-09T08:46:36.682Z,3.63
2023-04-09T08:49:03.577Z,2.97
2023-04-09T08:51:34.818Z,2.73
2023-04-09T08:54:04.498Z,3.63
2023-04-09T08:56:32.143Z,3.47
2023-04-09T08:58:59.165Z,3.77
2023-04-09T09:01:31.307Z,2.90
2023-04-09T09:04:12.022Z,5.40
2023-04-09T09:06:43.143Z,2.73
2023-04-09T09:09:16.466Z,2.72
2023-04-09T09:11:50.150Z,2.70
2023-04-09T09:14:18.849Z,2.80
2023-04-09T09:17:04.836Z,2.80
2023-04-09T09:19:36.757Z,3.20
2023-04-09T09:22:08.069Z,3.22
2023-04-09T09:24:46.661Z,6.37
2023-04-09T09:27:36.578Z,4.97
2023-04-09T09:30:05.705Z,3.20
2023-04-09T09:32:38.197Z,3.83
2023-04-09T09:35:08.351Z,9.00
2023-04-09T09:37:35.020Z,7.50
2023-04-09T09:40:01.779Z,3.70
2023-04-09T09:42:31.801Z,5.83
2023-04-09T09:44:59.355Z,4.43
2023-04-09T09:47:29.416Z,3.40
2023-04-09T09:49:56.108Z,4.50
2023-04-09T09:52:28.657Z,4.13
2023-04-09T09:54:57.291Z,4.32
2023-04-09T09:57:26.139Z,4.23
2023-04-09T10:00:02.090Z,7.67
2023-04-09T10:02:36.319Z,2.27
2023-04-09T10:05:05.903Z,5.23
2023-04-09T10:07:36.447Z,2.77
2023-04-09T10:10:05.730Z,5.33
2023-04-09T10:12:33.936Z,2.83
2023-04-09T10:15:06.084Z,3.73
2023-04-09T10:17:33.297Z,6.00
2023-04-09T10:20:10.500Z,2.67
2023-04-09T10:22:41.071Z,2.77
2023-04-09T10:25:10.577Z,2.37
2023-04-09T10:27:37.265Z,5.20
2023-04-09T10:30:07.405Z,3.27
2023-04-09T10:32:39.938Z,2.37
2023-04-09T10:35:09.343Z,2.03
2023-04-09T10:37:38.372Z,3.13
2023-04-09T10:40:05.712Z,2.57
2023-04-09T10:42:42.152Z,2.33
2023-04-09T10:45:16.744Z,2.38
2023-04-09T10:47:46.092Z,4.40
2023-04-09T10:50:25.399Z,3.40
2023-04-09T10:52:53.681Z,2.90
2023-04-09T10:55:38.667Z,2.90
2023-04-09T10:58:14.151Z,3.10
2023-04-09T11:00:45.886Z,2.90
2023-04-09T11:03:22.351Z,2.67
2023-04-09T11:05:57.473Z,4.67
2023-04-09T11:08:27.988Z,3.07
2023-04-09T11:10:58.344Z,4.33
2023-04-09T11:13:25.373Z,3.53
2023-04-09T11:15:52.163Z,3.40
2023-04-09T11:18:26.760Z,6.23
2023-04-09T11:21:01.687Z,4.23
2023-04-09T11:23:29.249Z,2.37
2023-04-09T11:25:56.468Z,3.03
2023-04-09T11:28:28.438Z,2.30
2023-04-09T11:30:57.288Z,2.75
2023-04-09T11:33:32.143Z,3.60
2023-04-09T11:35:58.884Z,2.57
2023-04-09T11:38:27.752Z,4.63
2023-04-09T11:40:57.726Z,5.97
2023-04-09T11:43:24.853Z,4.70
2023-04-09T11:45:52.707Z,4.50
2023-04-09T11:48:21.630Z,4.43
2023-04-09T11:50:50.640Z,3.63
2023-04-09T11:53:21.798Z,4.47
2023-04-09T11:55:52.945Z,3.40
2023-04-09T11:58:23.777Z,2.60
2023-04-09T12:01:00.556Z,2.90
2023-04-09T12:03:32.960Z,2.60
2023-04-09T12:06:02.577Z,13.17
2023-04-09T12:08:29.442Z,3.77
2023-04-09T12:10:56.182Z,4.33
2023-04-09T12:13:34.780Z,2.60
2023-04-09T12:16:02.640Z,3.10
2023-04-09T12:18:29.348Z,2.50
2023-04-09T12:20:55.993Z,2.60
2023-04-09T12:23:22.621Z,2.60
2023-04-09T12:25:49.303Z,2.70
2023-04-09T12:28:18.119Z,2.80
2023-04-09T12:30:49.035Z,3.43
2023-04-09T12:33:15.758Z,2.60
2023-04-09T12:35:42.571Z,3.40
2023-04-09T12:38:09.592Z,2.87
2023-04-09T12:40:36.958Z,4.00
2023-04-09T12:43:04.117Z,2.20
2023-04-09T12:45:33.166Z,2.97
2023-04-09T12:47:59.941Z,2.07
2023-04-09T12:50:29.113Z,4.23
2023-04-09T12:52:58.034Z,2.93
2023-04-09T12:55:29.495Z,3.58
2023-04-09T12:57:56.138Z,2.37
2023-04-09T13:00:25.134Z,3.50
2023-04-09T13:02:55.645Z,5.40
2023-04-09T13:05:22.493Z,48.40
2023-04-09T13:07:49.138Z,40.97
2023-04-09T13:10:18.132Z,40.73
2023-04-09T13:12:47.009Z,38.47
2023-04-09T13:15:16.492Z,23.50
2023-04-09T13:17:43.380Z,16.50
2023-04-09T13:20:12.444Z,20.73
2023-04-09T13:22:39.318Z,26.50
2023-04-09T13:25:06.236Z,11.97
2023-04-09T13:27:33.004Z,10.73
2023-04-09T13:29:59.875Z,14.63
2023-04-09T13:32:28.929Z,12.77
2023-04-09T13:34:57.806Z,10.07
2023-04-09T13:37:24.563Z,10.63
2023-04-09T13:39:51.552Z,10.23
2023-04-09T13:42:19.060Z,4.33
2023-04-09T13:44:48.289Z,4.67
2023-04-09T13:47:17.798Z,5.57
2023-04-09T13:49:44.622Z,4.97
2023-04-09T13:52:11.659Z,5.63
2023-04-09T13:54:38.458Z,3.27
2023-04-09T13:57:07.893Z,4.78
2023-04-09T13:59:34.634Z,4.13
2023-04-09T14:02:03.564Z,5.27
2023-04-09T14:04:30.450Z,4.80
2023-04-09T14:06:59.945Z,5.03
2023-04-09T14:09:26.628Z,13.32
2023-04-09T14:11:56.115Z,14.30
2023-04-09T14:14:22.841Z,20.43
2023-04-09T14:16:50.328Z,35.93
2023-04-09T14:19:19.222Z,37.07
2023-04-09T14:21:53.220Z,45.90
2023-04-09T14:24:23.221Z,33.87
2023-04-09T14:26:53.097Z,24.00
2023-04-09T14:29:22.926Z,24.87
2023-04-09T14:31:53.192Z,20.27
2023-04-09T14:34:21.019Z,11.97
2023-04-09T14:36:47.728Z,12.70
2023-04-09T14:39:14.601Z,17.17
2023-04-09T14:41:43.629Z,24.37
2023-04-09T14:44:10.641Z,20.37
2023-04-09T14:46:39.566Z,11.40
2023-04-09T14:49:06.370Z,18.93
2023-04-09T14:51:33.324Z,10.73
2023-04-09T14:54:01.492Z,10.63
2023-04-09T14:56:30.725Z,9.80
2023-04-09T14:58:59.910Z,21.17
2023-04-09T15:01:27.477Z,17.97
2023-04-09T15:03:54.650Z,8.33
2023-04-09T15:06:21.524Z,9.40
2023-04-09T15:08:50.872Z,12.17
2023-04-09T15:11:23.125Z,7.32
2023-04-09T15:13:51.203Z,7.77
2023-04-09T15:16:28.347Z,23.87
2023-04-09T15:18:57.633Z,28.63
2023-04-09T15:21:27.710Z,29.43
2023-04-09T15:23:59.192Z,27.77
2023-04-09T15:26:31.185Z,22.40
2023-04-09T15:29:03.905Z,16.27
2023-04-09T15:31:30.832Z,24.08
2023-04-09T15:33:57.518Z,17.57
2023-04-09T15:36:24.181Z,13.47
2023-04-09T15:38:56.300Z,11.20
2023-04-09T15:41:24.010Z,11.97
2023-04-09T15:43:51.725Z,9.87
2023-04-09T15:46:23.156Z,9.07
2023-04-09T15:48:49.859Z,10.60
2023-04-09T15:51:18.743Z,8.23
2023-04-09T15:53:45.494Z,10.97
2023-04-09T15:56:15.708Z,12.50
2023-04-09T15:58:45.019Z,12.17
2023-04-09T16:01:12.545Z,16.23
2023-04-09T16:03:41.752Z,7.83
2023-04-09T16:06:10.466Z,11.30
2023-04-09T16:08:37.466Z,14.50
2023-04-09T16:11:08.424Z,30.00
2023-04-09T16:13:37.459Z,35.70
2023-04-09T16:16:04.538Z,45.63
2023-04-09T16:18:33.471Z,23.37
2023-04-09T16:21:00.249Z,29.93
2023-04-09T16:23:30.848Z,36.90
2023-04-09T16:25:57.651Z,22.47
2023-04-09T16:28:29.335Z,20.50
2023-04-09T16:30:56.073Z,27.13
2023-04-09T16:33:25.343Z,14.70
2023-04-09T16:35:54.339Z,14.63
2023-04-09T16:38:21.369Z,14.37
2023-04-09T16:40:50.532Z,11.73
2023-04-09T16:43:19.422Z,16.27
2023-04-09T16:45:52.188Z,13.48
2023-04-09T16:48:19.287Z,11.40
2023-04-09T16:50:48.294Z,11.30
2023-04-09T16:53:17.193Z,11.27
2023-04-09T16:55:46.177Z,10.33
2023-04-09T16:58:12.947Z,8.70
2023-04-09T17:00:44.066Z,15.03
2023-04-09T17:03:12.304Z,13.10
2023-04-09T17:05:41.299Z,15.57
2023-04-09T17:08:07.983Z,7.43
2023-04-09T17:10:39.139Z,4.93
2023-04-09T17:13:05.997Z,3.50
2023-04-09T17:15:35.023Z,8.43
2023-04-09T17:18:02.340Z,8.38
2023-04-09T17:20:29.941Z,5.70
2023-04-09T17:22:56.927Z,7.27
2023-04-09T17:25:23.863Z,6.17
2023-04-09T17:27:54.480Z,7.33
2023-04-09T17:30:21.386Z,5.27
2023-04-09T17:32:52.248Z,6.53
2023-04-09T17:35:21.362Z,6.80
2023-04-09T17:37:48.168Z,6.47
2023-04-09T17:40:16.813Z,8.63
2023-04-09T17:42:43.550Z,6.97
2023-04-09T17:45:10.918Z,4.30
2023-04-09T17:47:39.122Z,8.75
2023-04-09T17:50:07.543Z,7.70
2023-04-09T17:52:37.300Z,4.40
2023-04-09T17:55:11.682Z,7.33
2023-04-09T17:57:39.142Z,12.53
2023-04-09T18:00:09.820Z,11.47
2023-04-09T18:02:36.726Z,7.80
2023-04-09T18:05:07.258Z,6.60
2023-04-09T18:07:34.524Z,4.53
2023-04-09T18:10:02.830Z,6.03
2023-04-09T18:12:29.975Z,7.30
2023-04-09T18:14:56.687Z,5.43
2023-04-09T18:17:23.513Z,5.50
2023-04-09T18:19:50.752Z,2.90
2023-04-09T18:22:19.825Z,3.53
2023-04-09T18:24:46.531Z,3.60
2023-04-09T18:27:13.255Z,9.60
2023-04-09T18:29:39.975Z,3.67
2023-04-09T18:32:07.027Z,3.13
2023-04-09T18:34:33.732Z,4.70
2023-04-09T18:37:00.555Z,5.17
2023-04-09T18:39:27.503Z,3.50
2023-04-09T18:41:54.206Z,3.53
2023-04-09T18:44:21.066Z,4.27
2023-04-09T18:46:47.776Z,5.27
2023-04-09T18:49:14.964Z,4.30
2023-04-09T18:51:42.069Z,5.13
2023-04-09T18:54:11.298Z,6.63
2023-04-09T18:56:40.218Z,3.07
2023-04-09T18:59:09.497Z,2.93
2023-04-09T19:01:36.817Z,3.10
2023-04-09T19:04:04.067Z,5.03
2023-04-09T19:06:33.103Z,2.60
2023-04-09T19:08:59.863Z,3.03
2023-04-09T19:11:26.774Z,3.40
2023-04-09T19:13:53.729Z,5.57
2023-04-09T19:16:21.573Z,2.67
2023-04-09T19:18:48.466Z,3.33
2023-04-09T19:21:15.108Z,3.27
2023-04-09T19:23:45.411Z,3.60
2023-04-09T19:26:12.166Z,3.53
2023-04-09T19:28:41.515Z,3.47
2023-04-09T19:31:08.533Z,3.37
2023-04-09T19:33:37.492Z,3.20
2023-04-09T19:36:04.447Z,3.70
2023-04-09T19:38:31.182Z,2.87
2023-04-09T19:41:00.295Z,4.33
2023-04-09T19:43:26.967Z,3.93
2023-04-09T19:45:54.614Z,3.00
2023-04-09T19:48:21.744Z,3.10
2023-04-09T19:50:49.383Z,3.10
2023-04-09T19:53:18.589Z,3.88
2023-04-09T19:55:45.269Z,3.40
2023-04-09T19:58:14.243Z,3.33
2023-04-09T20:00:43.767Z,2.80
2023-04-09T20:03:12.917Z,3.70
2023-04-09T20:05:42.001Z,3.90
2023-04-09T20:08:12.201Z,5.50
2023-04-09T20:10:46.406Z,2.80
2023-04-09T20:13:13.561Z,2.80
2023-04-09T20:15:40.292Z,3.07
2023-04-09T20:18:09.601Z,2.87
2023-04-09T20:20:36.336Z,3.03
2023-04-09T20:23:03.368Z,3.07
2023-04-09T20:25:35.230Z,3.07
2023-04-09T20:28:03.323Z,2.80
2023-04-09T20:30:34.186Z,2.73
2023-04-09T20:33:01.352Z,2.73
2023-04-09T20:35:28.113Z,4.07
2023-04-09T20:37:59.785Z,3.00
2023-04-09T20:40:26.477Z,5.50
2023-04-09T20:42:53.264Z,4.27
2023-04-09T20:45:20.229Z,6.33
2023-04-09T20:47:49.270Z,6.07
2023-04-09T20:50:19.572Z,4.87
2023-04-09T20:52:47.472Z,3.20
2023-04-09T20:55:17.540Z,3.13
2023-04-09T20:57:49.112Z,5.67
2023-04-09T21:00:18.792Z,5.20
2023-04-09T21:02:46.007Z,6.33
2023-04-09T21:05:22.765Z,3.87
2023-04-09T21:07:53.726Z,3.63
2023-04-09T21:10:22.676Z,3.50
2023-04-09T21:12:49.460Z,3.13
2023-04-09T21:15:16.289Z,3.73
2023-04-09T21:17:43.100Z,5.40
2023-04-09T21:20:10.280Z,3.70
2023-04-09T21:22:37.026Z,5.13
2023-04-09T21:25:03.965Z,7.50
2023-04-09T21:27:31.388Z,4.10
2023-04-09T21:30:00.302Z,4.43
2023-04-09T21:32:27.029Z,3.67
2023-04-09T21:34:56.365Z,6.90
2023-04-09T21:37:25.437Z,4.00
2023-04-09T21:39:54.404Z,8.43
2023-04-09T21:42:23.667Z,4.30
2023-04-09T21:44:50.637Z,4.07
2023-04-09T21:47:17.367Z,4.00
2023-04-09T21:49:44.343Z,3.57
2023-04-09T21:52:15.558Z,5.03
2023-04-09T21:54:44.921Z,4.20
2023-04-09T21:57:11.662Z,4.20
2023-04-09T21:59:40.949Z,3.80
2023-04-09T22:02:07.870Z,4.43
2023-04-09T22:04:37.424Z,4.23
2023-04-09T22:07:06.741Z,4.00
2023-04-09T22:09:36.449Z,7.87
2023-04-09T22:12:05.788Z,5.77
2023-04-09T22:14:35.097Z,4.43
2023-04-09T22:17:02.775Z,4.93
2023-04-09T22:19:31.485Z,5.47
2023-04-09T22:21:58.619Z,4.67
2023-04-09T22:24:29.702Z,7.23
2023-04-09T22:26:57.738Z,6.70
2023-04-09T22:29:26.157Z,6.07
2023-04-09T22:31:55.721Z,7.97
2023-04-09T22:34:27.627Z,7.83
2023-04-09T22:36:56.847Z,5.23
2023-04-09T22:39:25.725Z,6.07
2023-04-09T22:41:53.382Z,9.10
2023-04-09T22:44:20.326Z,4.73
2023-04-09T22:46:47.070Z,4.60
2023-04-09T22:49:13.857Z,4.90
2023-04-09T22:51:41.647Z,6.22
2023-04-09T22:54:09.052Z,5.83
2023-04-09T22:56:40.473Z,5.27
2023-04-09T22:59:09.300Z,8.10
2023-04-09T23:01:38.648Z,4.87
2023-04-09T23:04:07.518Z,4.30
2023-04-09T23:06:36.598Z,5.03
2023-04-09T23:09:03.406Z,4.50
2023-04-09T23:11:36.406Z,4.57
2023-04-09T23:14:05.902Z,4.87
2023-04-09T23:16:37.339Z,6.57
2023-04-09T23:19:08.548Z,4.90
2023-04-09T23:21:35.288Z,4.83
2023-04-09T23:24:01.921Z,4.60
2023-04-09T23:26:35.896Z,4.27
2023-04-09T23:29:02.620Z,5.18
2023-04-09T23:31:29.630Z,5.10
2023-04-09T23:33:56.673Z,4.93
2023-04-09T23:36:24.210Z,4.60
2023-04-09T23:38:51.212Z,4.77
2023-04-09T23:41:17.935Z,4.53
2023-04-09T23:43:46.852Z,4.67
2023-04-09T23:46:15.791Z,4.07
2023-04-09T23:48:42.520Z,4.10
2023-04-09T23:51:11.565Z,3.97
2023-04-09T23:53:38.354Z,5.83
2023-04-09T23:56:05.573Z,4.67
2023-04-09T23:58:32.832Z,4.27
